Time;durP1;ratioP1;P1;durP2;ratioP2;P2;SDS_P1;SDS_P2;PMS_P1;PMS_P2;Temp;Humidity;BMP_temperature;BMP_pressure;BME280_temperature;BME280_humidity;BME280_pressure;Samples;Min_cycle;Max_cycle;Signal;HPM_P1;HPM_P2
2022/08/06 00:01:53;;;;;;;4.87;4.50;;;;;;;-143.84;59.42;45028.13;5112157;28;20496;-76
2022/08/06 00:04:21;;;;;;;4.10;3.87;;;;;;;-143.84;59.55;45018.59;5111827;28;20474;-76
2022/08/06 00:06:49;;;;;;;4.10;3.73;;;;;;;-143.84;58.82;45037.66;5111861;28;20443;-76
2022/08/06 00:09:16;;;;;;;4.70;4.37;;;;;;;-143.84;58.56;45003.38;5111913;28;20476;-76
2022/08/06 00:11:44;;;;;;;5.40;4.60;;;;;;;-143.84;58.39;45028.13;5112053;28;20434;-76
2022/08/06 00:14:12;;;;;;;4.87;4.47;;;;;;;-143.84;58.43;45007.19;5111797;28;20446;-76
2022/08/06 00:16:39;;;;;;;4.20;3.93;;;;;;;-143.84;58.93;45030.03;5111962;28;20442;-76
2022/08/06 00:19:06;;;;;;;4.70;4.30;;;;;;;-143.84;57.29;45012.88;5111631;28;20533;-76
2022/08/06 00:21:34;;;;;;;4.57;4.27;;;;;;;-143.84;58.17;45014.78;5111781;28;20808;-76
2022/08/06 00:24:01;;;;;;;5.67;5.00;;;;;;;-143.84;57.96;45031.94;5111960;28;20775;-76
2022/08/06 00:26:28;;;;;;;5.53;4.40;;;;;;;-143.84;58.13;45016.69;5111571;28;20532;-76
2022/08/06 00:28:57;;;;;;;5.07;4.67;;;;;;;-143.84;57.89;45028.13;5111715;28;20447;-76
2022/08/06 00:31:24;;;;;;;5.13;4.83;;;;;;;-143.84;57.99;45016.69;5111322;28;20447;-76
2022/08/06 00:33:51;;;;;;;4.70;4.40;;;;;;;-143.84;57.08;45031.94;5111894;28;20438;-76
2022/08/06 00:36:19;;;;;;;5.27;4.90;;;;;;;-143.84;57.10;45010.97;5111836;28;20446;-76
2022/08/06 00:38:46;;;;;;;10.00;4.97;;;;;;;-143.84;55.85;45010.97;5111446;28;20852;-76
2022/08/06 00:41:14;;;;;;;4.90;4.40;;;;;;;-143.84;55.98;45014.78;5111478;28;20445;-76
2022/08/06 00:43:42;;;;;;;4.90;4.60;;;;;;;-143.84;55.86;45012.88;5111176;28;20439;-71
2022/08/06 00:46:11;;;;;;;5.63;5.13;;;;;;;-143.84;55.86;45016.69;5110055;28;20482;-67
2022/08/06 00:48:38;;;;;;;4.63;4.30;;;;;;;-143.84;55.91;45022.41;5110527;28;20774;-68
2022/08/06 00:51:06;;;;;;;10.97;4.80;;;;;;;-143.84;55.73;45028.13;5110229;28;20471;-67
2022/08/06 00:53:33;;;;;;;6.57;5.53;;;;;;;-143.84;56.04;44990.03;5110594;28;20435;-68
2022/08/06 00:56:01;;;;;;;4.30;4.00;;;;;;;-143.84;55.55;45047.16;5110443;28;20443;-68
2022/08/06 00:58:29;;;;;;;6.10;4.80;;;;;;;-143.84;55.71;45016.69;5110305;28;20431;-67
2022/08/06 01:00:56;;;;;;;9.47;5.00;;;;;;;-143.84;55.83;45010.97;5110505;28;20419;-67
2022/08/06 01:03:25;;;;;;;6.17;5.57;;;;;;;-143.84;56.30;45020.50;5110253;28;20450;-67
2022/08/06 01:05:52;;;;;;;5.30;4.90;;;;;;;-143.84;56.16;45028.13;5109976;28;20475;-68
2022/08/06 01:08:19;;;;;;;4.83;4.53;;;;;;;-143.84;55.57;45022.41;5110014;28;20443;-67
2022/08/06 01:10:46;;;;;;;4.63;4.40;;;;;;;-143.84;56.67;45018.59;5110155;28;20431;-67
2022/08/06 01:13:14;;;;;;;5.13;4.73;;;;;;;-143.84;56.41;45020.50;5109583;28;20446;-67
2022/08/06 01:15:47;;;;;;;4.93;4.57;;;;;;;-143.84;56.29;45018.59;5109857;28;20454;-67
2022/08/06 01:18:24;;;;;;;5.37;4.40;;;;;;;-143.84;55.90;45005.28;5110069;28;21033;-68
2022/08/06 01:21:12;;;;;;;5.10;4.70;;;;;;;-143.84;55.53;45014.78;5109947;28;20430;-67
2022/08/06 01:23:53;;;;;;;5.73;5.33;;;;;;;-143.84;56.14;45009.09;5109837;28;20500;-67
2022/08/06 01:26:33;;;;;;;4.97;4.57;;;;;;;-143.84;56.72;45031.94;5109743;28;20478;-67
2022/08/06 01:29:05;;;;;;;6.80;5.67;;;;;;;-143.84;57.08;45007.19;5110013;28;20473;-67
2022/08/06 01:31:37;;;;;;;6.50;4.97;;;;;;;-143.84;57.33;45026.22;5110054;28;20517;-68
2022/08/06 01:34:11;;;;;;;6.00;5.60;;;;;;;-143.84;57.25;45014.78;5109792;28;20447;-67
2022/08/06 01:36:43;;;;;;;5.90;5.30;;;;;;;-143.84;57.55;45018.59;5109596;28;20527;-67
2022/08/06 01:39:14;;;;;;;5.67;5.27;;;;;;;-143.84;57.48;45026.22;5110041;28;20431;-67
2022/08/06 01:41:45;;;;;;;6.70;6.20;;;;;;;-143.84;57.87;45018.59;5109805;28;21117;-67
2022/08/06 01:44:17;;;;;;;4.63;4.20;;;;;;;-143.84;57.36;45020.50;5109390;28;20439;-68
2022/08/06 01:46:50;;;;;;;6.47;5.93;;;;;;;-143.84;57.79;45031.94;5109593;28;20479;-67
2022/08/06 01:49:20;;;;;;;6.67;5.90;;;;;;;-143.84;57.19;45010.97;5109197;28;20984;-67
2022/08/06 01:51:51;;;;;;;5.70;5.17;;;;;;;-143.84;56.25;45014.78;5109968;28;20465;-67
2022/08/06 01:54:20;;;;;;;6.47;5.60;;;;;;;-143.84;57.67;45037.66;5109869;28;20956;-67
2022/08/06 01:56:51;;;;;;;5.97;5.37;;;;;;;-143.84;57.54;45018.59;5112318;28;20446;-76
2022/08/06 01:59:22;;;;;;;5.47;5.07;;;;;;;-143.84;57.37;45026.22;5114364;28;20492;-76
2022/08/06 02:01:55;;;;;;;11.10;6.00;;;;;;;-143.84;56.74;45030.03;5114515;28;20438;-76
2022/08/06 02:04:26;;;;;;;6.07;5.53;;;;;;;-143.84;57.54;45007.19;5112926;28;20435;-76
2022/08/06 02:06:56;;;;;;;6.23;5.43;;;;;;;-143.84;58.76;44974.81;5112407;28;20482;-76
2022/08/06 02:09:25;;;;;;;10.27;6.30;;;;;;;-143.84;58.33;45024.31;5113523;28;20499;-76
2022/08/06 02:11:56;;;;;;;6.30;5.80;;;;;;;-143.84;57.42;45022.41;5113319;28;20449;-76
2022/08/06 02:14:28;;;;;;;10.03;5.73;;;;;;;-143.84;57.76;45018.59;5113420;28;20434;-76
2022/08/06 02:16:57;;;;;;;6.07;5.50;;;;;;;-143.84;57.50;45012.88;5114359;28;20873;-76
2022/08/06 02:19:27;;;;;;;9.40;6.00;;;;;;;-143.84;58.28;44991.94;5114103;28;20450;-76
2022/08/06 02:21:57;;;;;;;9.00;7.03;;;;;;;-143.84;58.54;45041.44;5113996;28;20499;-76
2022/08/06 02:24:26;;;;;;;6.90;6.40;;;;;;;-143.84;57.98;45003.38;5114227;28;20450;-76
2022/08/06 02:26:55;;;;;;;6.17;5.67;;;;;;;-143.84;57.88;45012.88;5113787;28;20482;-76
2022/08/06 02:29:24;;;;;;;7.17;6.40;;;;;;;-143.84;57.35;44997.66;5114097;28;20434;-76
2022/08/06 02:31:53;;;;;;;8.83;6.10;;;;;;;-143.84;58.12;45010.97;5114031;28;20499;-76
2022/08/06 02:34:21;;;;;;;6.70;6.07;;;;;;;-143.84;57.65;45016.69;5113616;28;20457;-76
2022/08/06 02:36:55;;;;;;;7.37;5.80;;;;;;;-143.84;57.36;45012.88;5114161;28;20423;-76
2022/08/06 02:39:26;;;;;;;6.13;5.73;;;;;;;-143.84;57.88;45028.13;5114008;28;20447;-76
2022/08/06 02:42:01;;;;;;;6.20;5.70;;;;;;;-143.84;57.74;45003.38;5113994;28;20872;-76
2022/08/06 02:44:41;;;;;;;13.47;5.83;;;;;;;-143.84;57.97;45010.97;5113439;28;20477;-76
2022/08/06 02:47:18;;;;;;;14.97;5.60;;;;;;;-143.84;58.65;45028.13;5113474;28;20481;-76
2022/08/06 02:49:49;;;;;;;6.03;5.53;;;;;;;-143.84;58.29;45022.41;5113235;28;20497;-75
2022/08/06 02:52:20;;;;;;;5.97;5.33;;;;;;;-143.84;58.67;45010.97;5113301;28;20856;-76
2022/08/06 02:54:55;;;;;;;6.33;5.73;;;;;;;-143.84;58.52;45020.50;5113181;28;20499;-75
2022/08/06 02:57:29;;;;;;;8.63;6.00;;;;;;;-143.84;58.75;45037.66;5113005;28;21081;-75
2022/08/06 03:00:03;;;;;;;9.33;5.97;;;;;;;-143.84;58.33;45016.69;5112879;28;20434;-76
2022/08/06 03:02:34;;;;;;;7.00;6.30;;;;;;;-143.84;58.40;44990.03;5113283;28;20952;-76
2022/08/06 03:05:03;;;;;;;6.60;5.40;;;;;;;-143.84;58.33;45026.22;5113555;28;20443;-77
2022/08/06 03:07:33;;;;;;;6.50;5.90;;;;;;;-143.84;57.84;44988.13;5112853;28;20431;-76
2022/08/06 03:10:02;;;;;;;6.00;5.37;;;;;;;-143.84;57.96;45010.97;5113004;28;20439;-78
2022/08/06 03:12:30;;;;;;;6.37;5.53;;;;;;;-143.84;57.73;45009.09;5113030;28;20439;-78
2022/08/06 03:14:59;;;;;;;6.13;5.70;;;;;;;-143.84;57.71;45001.47;5113082;28;20496;-78
2022/08/06 03:17:28;;;;;;;6.67;6.00;;;;;;;-143.84;57.98;45018.59;5113095;28;20522;-75
2022/08/06 03:19:58;;;;;;;6.07;5.57;;;;;;;-143.84;57.48;45014.78;5113215;28;20439;-75
2022/08/06 03:22:27;;;;;;;7.10;6.07;;;;;;;-143.84;57.58;45026.22;5112915;28;20502;-78
2022/08/06 03:24:55;;;;;;;5.97;5.23;;;;;;;-143.84;57.77;45001.47;5112697;28;20431;-78
2022/08/06 03:27:25;;;;;;;6.47;5.87;;;;;;;-143.84;57.34;45033.84;5112728;28;20527;-76
2022/08/06 03:29:54;;;;;;;6.10;5.60;;;;;;;-143.84;57.50;45037.66;5112619;28;20503;-78
2022/08/06 03:32:22;;;;;;;6.57;5.30;;;;;;;-143.84;57.19;45005.28;5112729;28;20439;-78
2022/08/06 03:34:51;;;;;;;6.47;5.93;;;;;;;-143.84;57.25;45018.59;5112248;28;20439;-78
2022/08/06 03:37:21;;;;;;;6.67;5.83;;;;;;;-143.84;57.33;44980.53;5112410;28;20455;-77
2022/08/06 03:39:51;;;;;;;7.70;5.67;;;;;;;-143.84;57.19;45020.50;5112093;28;20443;-75
2022/08/06 03:42:18;;;;;;;6.97;6.30;;;;;;;-143.84;56.98;45014.78;5112192;28;20439;-77
2022/08/06 03:44:45;;;;;;;6.17;5.60;;;;;;;-143.84;56.21;45026.22;5112015;28;20439;-78
2022/08/06 03:47:17;;;;;;;5.23;4.83;;;;;;;-143.84;54.52;44991.94;5112215;28;20519;-78
2022/08/06 03:49:51;;;;;;;7.67;5.57;;;;;;;-143.84;53.14;44991.94;5111852;28;20886;-77
2022/08/06 03:52:25;;;;;;;6.00;5.40;;;;;;;-143.84;51.59;44993.84;5111989;28;20443;-77
2022/08/06 03:54:56;;;;;;;5.60;5.10;;;;;;;-143.84;49.49;44980.53;5111422;28;20446;-77
2022/08/06 03:57:28;;;;;;;6.00;5.10;;;;;;;-143.84;48.11;44963.38;5111836;28;20937;-77
2022/08/06 04:00:00;;;;;;;5.67;5.27;;;;;;;-143.84;45.39;44940.53;5111962;28;20446;-77
2022/08/06 04:02:32;;;;;;;5.43;5.00;;;;;;;-143.84;43.82;44951.97;5112331;28;20478;-78
2022/08/06 04:05:00;;;;;;;7.93;5.20;;;;;;;-143.84;42.19;44925.31;5111638;28;20434;-73
2022/08/06 04:07:31;;;;;;;5.30;4.97;;;;;;;-143.84;41.51;44951.97;5111172;28;20900;-74
2022/08/06 04:10:00;;;;;;;5.13;4.63;;;;;;;-143.84;40.82;44944.34;5110903;28;20928;-75
2022/08/06 04:12:28;;;;;;;5.93;5.40;;;;;;;-143.84;39.66;44919.59;5110859;28;20438;-73
2022/08/06 04:14:55;;;;;;;8.70;4.90;;;;;;;-143.84;39.61;44929.09;5111075;28;20500;-73
2022/08/06 04:17:24;;;;;;;7.80;4.47;;;;;;;-143.84;38.96;44898.66;5110848;28;20508;-74
2022/08/06 04:19:52;;;;;;;6.83;5.17;;;;;;;-143.84;38.78;44892.94;5109404;28;20517;-73
2022/08/06 04:22:20;;;;;;;5.30;4.90;;;;;;;-143.84;38.48;44896.75;5110520;28;20492;-74
2022/08/06 04:24:49;;;;;;;5.87;5.27;;;;;;;-143.84;38.33;44896.75;5110551;28;20531;-73
2022/08/06 04:27:17;;;;;;;7.60;5.23;;;;;;;-143.84;38.49;44871.97;5110447;28;20886;-74
2022/08/06 04:29:46;;;;;;;5.40;5.10;;;;;;;-143.84;38.55;44881.50;5110295;28;20951;-74
2022/08/06 04:32:16;;;;;;;5.90;5.40;;;;;;;-143.84;38.35;44887.22;5110488;28;20454;-74
2022/08/06 04:34:44;;;;;;;7.63;5.60;;;;;;;-143.84;38.29;44891.03;5110110;28;20439;-74
2022/08/06 04:37:13;;;;;;;8.57;5.40;;;;;;;-143.84;38.27;44889.13;5109980;28;20500;-74
2022/08/06 04:39:40;;;;;;;4.90;4.60;;;;;;;-143.84;38.40;44896.75;5110161;28;20495;-74
2022/08/06 04:42:09;;;;;;;9.93;5.10;;;;;;;-143.84;38.04;44839.63;5110170;28;20967;-74
2022/08/06 04:44:37;;;;;;;5.10;4.80;;;;;;;-143.84;38.09;44902.44;5110141;28;20512;-74
2022/08/06 04:47:05;;;;;;;6.90;5.00;;;;;;;-143.84;38.15;44851.03;5109789;28;20482;-74
2022/08/06 04:49:32;;;;;;;5.57;4.90;;;;;;;-143.84;38.44;44862.47;5109863;28;20536;-74
2022/08/06 04:52:00;;;;;;;7.80;4.97;;;;;;;-143.84;38.24;44845.31;5110019;28;20443;-74
2022/08/06 04:54:27;;;;;;;11.83;5.10;;;;;;;-143.84;38.25;44864.38;5110030;28;20443;-74
2022/08/06 04:56:54;;;;;;;5.00;4.50;;;;;;;-143.84;37.98;44843.44;5110177;28;21415;-75
2022/08/06 04:59:22;;;;;;;6.40;5.17;;;;;;;-143.84;37.70;44822.47;5110068;28;20451;-74
2022/08/06 05:01:50;;;;;;;5.80;5.20;;;;;;;-143.84;37.66;44873.88;5109948;28;20447;-74
2022/08/06 05:04:17;;;;;;;6.47;5.40;;;;;;;-143.84;37.64;44873.88;5109738;28;20513;-74
2022/08/06 05:06:49;;;;;;;6.63;5.33;;;;;;;-143.84;37.69;44851.03;5109553;28;20987;-74
2022/08/06 05:09:20;;;;;;;5.10;4.70;;;;;;;-143.84;37.24;44807.25;5109490;28;20499;-74
2022/08/06 05:11:55;;;;;;;7.97;5.03;;;;;;;-143.84;37.05;44849.13;5109850;28;20442;-74
2022/08/06 05:14:30;;;;;;;6.30;5.23;;;;;;;-143.84;36.93;44885.31;5109719;28;20446;-74
2022/08/06 05:16:57;;;;;;;5.67;5.23;;;;;;;-143.84;37.32;44843.44;5109456;28;20504;-74
2022/08/06 05:19:31;;;;;;;10.43;4.90;;;;;;;-143.84;37.01;44818.66;5109534;28;20485;-74
2022/08/06 05:22:00;;;;;;;14.30;5.77;;;;;;;-143.84;36.12;44845.31;5109208;28;20427;-74
2022/08/06 05:24:29;;;;;;;5.70;5.20;;;;;;;-143.84;36.40;44839.63;5109470;28;20503;-74
2022/08/06 05:26:56;;;;;;;7.37;5.67;;;;;;;-143.84;35.73;44811.06;5109259;28;20470;-74
2022/08/06 05:29:25;;;;;;;4.80;4.27;;;;;;;-143.84;36.47;44833.91;5109431;28;20994;-74
2022/08/06 05:32:01;;;;;;;10.50;6.00;;;;;;;-143.84;36.47;44830.09;5108872;28;20499;-74
2022/08/06 05:34:28;;;;;;;6.37;5.03;;;;;;;-143.84;35.90;44812.97;5108956;28;20503;-74
2022/08/06 05:36:55;;;;;;;6.50;5.47;;;;;;;-143.84;36.23;44805.34;5109345;28;20435;-74
2022/08/06 05:39:23;;;;;;;6.33;5.10;;;;;;;-143.84;35.85;44824.38;5109237;28;20851;-74
2022/08/06 05:41:50;;;;;;;6.27;5.57;;;;;;;-143.84;36.07;44832.00;5109204;28;20928;-74
2022/08/06 05:44:17;;;;;;;7.97;5.30;;;;;;;-143.84;36.02;44797.72;5109129;28;21312;-74
2022/08/06 05:46:52;;;;;;;6.07;5.57;;;;;;;-143.84;36.07;44807.25;5109083;28;20497;-74
2022/08/06 05:49:24;;;;;;;12.03;5.23;;;;;;;-143.84;36.18;44805.34;5108913;28;20484;-74
2022/08/06 05:51:59;;;;;;;13.90;5.50;;;;;;;-143.84;36.19;44830.09;5109106;28;21033;-74
2022/08/06 05:54:34;;;;;;;7.80;5.57;;;;;;;-143.84;36.42;44809.16;5109048;28;20439;-74
2022/08/06 05:57:06;;;;;;;7.43;5.10;;;;;;;-143.84;35.89;44769.16;5109106;28;20495;-74
2022/08/06 05:59:39;;;;;;;7.90;4.83;;;;;;;-143.84;35.68;44811.06;5109082;28;20450;-74
2022/08/06 06:02:10;;;;;;;6.50;4.83;;;;;;;-143.84;35.31;44805.34;5109182;28;20431;-74
2022/08/06 06:04:38;;;;;;;5.93;5.43;;;;;;;-143.84;35.69;44776.78;5109301;28;20435;-74
2022/08/06 06:07:05;;;;;;;5.80;4.47;;;;;;;-143.84;35.78;44801.53;5108919;28;20547;-74
2022/08/06 06:09:33;;;;;;;11.53;5.13;;;;;;;-143.84;35.59;44786.31;5108788;28;20439;-73
2022/08/06 06:12:01;;;;;;;7.93;5.23;;;;;;;-143.84;36.09;44778.69;5108669;28;20482;-73
2022/08/06 06:14:38;;;;;;;7.80;5.40;;;;;;;-143.84;35.29;44793.91;5109046;28;20462;-73
2022/08/06 06:17:38;;;;;;;6.20;5.60;;;;;;;-143.84;34.66;44790.13;5108535;28;20480;-73
2022/08/06 06:20:14;;;;;;;11.87;4.97;;;;;;;-143.84;34.54;44767.25;5108562;28;20451;-73
2022/08/06 06:22:51;;;;;;;6.17;5.50;;;;;;;-143.84;34.24;44740.59;5108675;28;20430;-73
2022/08/06 06:25:25;;;;;;;6.60;5.90;;;;;;;-143.84;33.77;44767.25;5108803;28;20481;-73
2022/08/06 06:27:58;;;;;;;10.17;5.63;;;;;;;-143.84;33.96;44784.41;5090881;28;20487;-73
2022/08/06 06:30:34;;;;;;;11.70;5.40;;;;;;;-143.84;34.20;44782.50;5107749;28;20936;-73
2022/08/06 06:33:15;;;;;;;6.83;6.33;;;;;;;-143.84;34.07;44790.13;5107627;28;20978;-73
2022/08/06 06:35:51;;;;;;;6.57;4.97;;;;;;;-143.84;34.13;44799.63;5108331;28;20450;-74
2022/08/06 06:38:39;;;;;;;6.40;5.90;;;;;;;-143.84;34.26;44782.50;5108203;28;20951;-73
2022/08/06 06:41:13;;;;;;;7.30;5.60;;;;;;;-143.84;34.27;44780.59;5108044;28;20446;-73
2022/08/06 06:43:47;;;;;;;6.07;5.40;;;;;;;-143.84;34.59;44763.47;5111127;28;20896;-73
2022/08/06 06:46:21;;;;;;;7.93;5.57;;;;;;;-143.84;34.62;44771.06;5112392;28;20454;-75
2022/08/06 06:48:54;;;;;;;13.63;5.37;;;;;;;-143.84;34.25;44778.69;5111940;28;21018;-74
2022/08/06 06:51:27;;;;;;;7.97;5.73;;;;;;;-143.84;34.32;44753.94;5112586;28;20451;-74
2022/08/06 06:53:56;;;;;;;11.33;5.47;;;;;;;-143.84;34.53;44792.00;5112379;28;20443;-74
2022/08/06 06:56:27;;;;;;;6.30;5.80;;;;;;;-143.84;34.84;44763.47;5112280;28;21035;-74
2022/08/06 06:58:59;;;;;;;5.97;5.57;;;;;;;-143.84;34.88;44782.50;5112133;28;20959;-74
2022/08/06 07:01:30;;;;;;;7.13;6.53;;;;;;;-143.84;34.87;44776.78;5112106;28;20445;-74
2022/08/06 07:04:01;;;;;;;22.17;7.30;;;;;;;-143.84;35.10;44774.88;5112189;28;21316;-74
2022/08/06 07:06:29;;;;;;;17.30;7.20;;;;;;;-143.84;35.09;44786.31;5112277;28;20443;-74
2022/08/06 07:08:59;;;;;;;17.30;6.67;;;;;;;-143.84;35.28;44774.88;5112221;28;20479;-74
2022/08/06 07:11:28;;;;;;;7.67;6.23;;;;;;;-143.84;35.56;44793.91;5112020;28;20434;-74
2022/08/06 07:13:58;;;;;;;11.60;5.70;;;;;;;-143.84;35.90;44774.88;5111797;28;20451;-74
2022/08/06 07:16:27;;;;;;;8.93;6.90;;;;;;;-143.84;35.93;44807.25;5112771;28;20439;-75
2022/08/06 07:18:55;;;;;;;9.77;5.87;;;;;;;-143.84;36.31;44793.91;5111818;28;20488;-74
2022/08/06 07:21:24;;;;;;;15.43;6.80;;;;;;;-143.84;36.55;44757.75;5111955;28;20491;-75
2022/08/06 07:23:53;;;;;;;10.50;7.00;;;;;;;-143.84;36.38;44792.00;5111365;28;20523;-75
2022/08/06 07:26:23;;;;;;;10.77;6.93;;;;;;;-143.84;36.40;44803.44;5111879;28;20807;-75
2022/08/06 07:28:53;;;;;;;8.73;6.03;;;;;;;-143.84;36.36;44757.75;5111801;28;20438;-75
2022/08/06 07:31:25;;;;;;;5.73;5.23;;;;;;;-143.84;36.03;44772.97;5111354;28;20785;-75
2022/08/06 07:33:53;;;;;;;7.10;6.50;;;;;;;-143.84;36.29;44820.56;5111349;28;20447;-74
2022/08/06 07:36:26;;;;;;;7.37;6.50;;;;;;;-143.84;36.43;44774.88;5111301;28;20435;-74
2022/08/06 07:38:59;;;;;;;7.57;6.77;;;;;;;-143.84;36.50;44774.88;5111330;28;20534;-74
2022/08/06 07:41:28;;;;;;;8.57;6.53;;;;;;;-143.84;36.55;44778.69;5111242;28;20438;-74
2022/08/06 07:43:59;;;;;;;11.90;6.53;;;;;;;-143.84;36.96;44786.31;5111333;28;20475;-74
2022/08/06 07:46:32;;;;;;;10.93;6.60;;;;;;;-143.84;38.52;44792.00;5110283;27;20526;-74
2022/08/06 07:49:02;;;;;;;7.43;6.43;;;;;;;-143.84;37.19;44799.63;5110281;28;20516;-74
2022/08/06 07:51:35;;;;;;;8.13;6.50;;;;;;;-143.84;37.03;44778.69;5111095;28;20948;-72
2022/08/06 07:54:04;;;;;;;7.17;6.57;;;;;;;-143.84;36.99;44797.72;5110749;28;20439;-73
2022/08/06 07:56:31;;;;;;;8.63;7.03;;;;;;;-143.84;37.06;44805.34;5111335;28;21144;-74
2022/08/06 07:59:00;;;;;;;13.10;6.50;;;;;;;-143.84;37.20;44790.13;5111026;28;20972;-74
2022/08/06 08:01:29;;;;;;;8.30;6.57;;;;;;;-143.84;36.55;44803.44;5111035;28;20498;-70
2022/08/06 08:06:43;;;;;;;14.93;6.50;;;;;;;-143.84;37.71;44788.22;5110887;28;20430;-72
2022/08/06 08:09:14;;;;;;;8.50;5.70;;;;;;;-143.84;37.88;44788.22;5110844;28;20439;-72
2022/08/06 08:11:43;;;;;;;7.30;6.60;;;;;;;-143.84;37.13;44818.66;5110639;28;20447;-72
2022/08/06 08:14:12;;;;;;;11.60;6.17;;;;;;;-143.84;36.30;44763.47;5110644;28;20435;-72
2022/08/06 08:16:41;;;;;;;5.80;5.30;;;;;;;-143.84;35.67;44805.34;5110379;28;20443;-72
2022/08/06 08:19:26;;;;;;;7.40;5.43;;;;;;;-143.84;36.14;44811.06;5110707;28;20439;-72
2022/08/06 08:21:56;;;;;;;6.47;4.53;;;;;;;-143.84;35.61;44786.31;5110422;28;20449;-72
2022/08/06 08:24:24;;;;;;;7.23;5.60;;;;;;;-143.84;35.39;44809.16;5110406;28;20484;-72
2022/08/06 08:26:52;;;;;;;5.17;4.67;;;;;;;-143.84;34.81;44828.19;5110374;28;20458;-72
2022/08/06 08:29:19;;;;;;;5.77;5.27;;;;;;;-143.84;35.02;44792.00;5110138;28;20443;-72
2022/08/06 08:31:46;;;;;;;5.50;5.10;;;;;;;-143.84;35.82;44790.13;5110197;28;20968;-72
2022/08/06 08:34:13;;;;;;;6.00;5.60;;;;;;;-143.84;35.38;44812.97;5110683;28;20431;-72
2022/08/06 08:36:41;;;;;;;5.83;5.33;;;;;;;-143.84;35.48;44812.97;5110306;28;20435;-72
2022/08/06 08:39:10;;;;;;;6.00;5.33;;;;;;;-143.84;35.92;44782.50;5110155;28;20439;-72
2022/08/06 08:41:41;;;;;;;5.70;5.30;;;;;;;-143.84;36.53;44812.97;5110405;28;20440;-72
2022/08/06 08:44:09;;;;;;;6.30;5.80;;;;;;;-143.84;36.21;44784.41;5109758;28;20444;-72
2022/08/06 08:46:39;;;;;;;5.70;5.30;;;;;;;-143.84;36.35;44793.91;5110003;28;20439;-72
2022/08/06 08:49:09;;;;;;;7.10;4.80;;;;;;;-143.84;35.72;44811.06;5110034;28;20489;-72
2022/08/06 08:51:41;;;;;;;5.90;5.50;;;;;;;-143.84;36.11;44797.72;5110292;28;20431;-72
2022/08/06 08:54:12;;;;;;;15.10;5.20;;;;;;;-143.84;36.15;44790.13;5109831;28;20963;-72
2022/08/06 08:56:40;;;;;;;8.20;4.93;;;;;;;-143.84;36.21;44812.97;5110041;28;21423;-72
2022/08/06 08:59:07;;;;;;;5.67;5.27;;;;;;;-143.84;36.10;44788.22;5109953;28;21176;-72
2022/08/06 09:01:35;;;;;;;4.63;4.23;;;;;;;-143.84;36.04;44828.19;5109887;28;20503;-72
2022/08/06 09:04:04;;;;;;;10.53;5.27;;;;;;;-143.84;36.12;44820.56;5109723;28;20518;-72
2022/08/06 09:06:32;;;;;;;9.63;5.50;;;;;;;-143.84;35.46;44820.56;5109375;28;20510;-72
2022/08/06 09:09:03;;;;;;;4.80;4.30;;;;;;;-143.84;35.75;44805.34;5110900;28;20484;-78
2022/08/06 09:11:32;;;;;;;5.70;4.60;;;;;;;-143.84;36.15;44824.38;5110844;28;20828;-74
2022/08/06 09:14:02;;;;;;;6.50;4.90;;;;;;;-143.84;35.75;44805.34;5109406;28;20512;-72
2022/08/06 09:16:30;;;;;;;3.97;3.60;;;;;;;-143.84;35.65;44805.34;5109670;28;21134;-72
2022/08/06 09:18:57;;;;;;;4.23;3.93;;;;;;;-143.84;35.70;44790.13;5109515;28;20491;-72
2022/08/06 09:21:24;;;;;;;7.53;3.90;;;;;;;-143.84;35.58;44797.72;5109457;28;20438;-72
2022/08/06 09:23:52;;;;;;;5.87;4.53;;;;;;;-143.84;35.80;44776.78;5109881;28;20439;-72
2022/08/06 09:26:20;;;;;;;4.70;4.40;;;;;;;-143.84;34.37;44786.31;5109483;28;20454;-72
2022/08/06 09:28:49;;;;;;;8.50;4.40;;;;;;;-143.84;35.85;44812.97;5109300;28;20859;-72
2022/08/06 09:31:17;;;;;;;4.60;4.30;;;;;;;-143.84;36.02;44816.78;5109425;28;20440;-71
2022/08/06 09:33:55;;;;;;;4.50;4.20;;;;;;;-143.84;35.21;44812.97;5109385;28;20759;-72
2022/08/06 09:36:22;;;;;;;6.43;4.80;;;;;;;-143.84;35.79;44790.13;5109467;28;20847;-72
2022/08/06 09:38:52;;;;;;;4.47;4.17;;;;;;;-143.84;35.65;44809.16;5109258;28;20443;-72
2022/08/06 09:41:22;;;;;;;5.17;3.87;;;;;;;-143.84;36.40;44814.88;5108912;28;20490;-72
2022/08/06 09:43:53;;;;;;;6.13;5.07;;;;;;;-143.84;36.44;44828.19;5108906;28;20439;-72
2022/08/06 09:46:37;;;;;;;4.80;4.50;;;;;;;-143.84;35.59;44792.00;5108742;28;20439;-72
2022/08/06 09:49:05;;;;;;;4.00;3.70;;;;;;;-143.84;35.16;44797.72;5108735;28;20545;-72
2022/08/06 09:51:34;;;;;;;4.43;4.17;;;;;;;-143.84;34.92;44830.09;5109023;28;20451;-72
2022/08/06 09:54:03;;;;;;;4.40;4.00;;;;;;;-143.84;34.01;44830.09;5109012;28;20486;-72
2022/08/06 09:56:31;;;;;;;4.97;4.60;;;;;;;-143.84;34.87;44820.56;5109127;28;20445;-72
2022/08/06 09:59:02;;;;;;;8.53;5.20;;;;;;;-143.84;35.40;44807.25;5109309;28;20496;-72
2022/08/06 10:01:30;;;;;;;4.90;4.60;;;;;;;-143.84;35.64;44801.53;5109309;28;20435;-74
2022/08/06 10:03:59;;;;;;;4.50;4.20;;;;;;;-143.84;36.09;44818.66;5109178;28;20435;-74
2022/08/06 10:06:26;;;;;;;4.50;4.20;;;;;;;-143.84;35.71;44832.00;5108910;28;20439;-74
2022/08/06 10:09:07;;;;;;;7.33;4.90;;;;;;;-143.84;36.64;44793.91;5108722;28;20477;-74
2022/08/06 10:11:36;;;;;;;4.90;4.60;;;;;;;-143.84;37.75;44824.38;5109192;28;20867;-74
2022/08/06 10:14:05;;;;;;;13.60;4.77;;;;;;;-143.84;38.44;44820.56;5108880;28;20431;-74
2022/08/06 10:16:32;;;;;;;5.43;4.90;;;;;;;-143.84;38.93;44843.44;5109124;28;20443;-74
2022/08/06 10:19:02;;;;;;;5.97;5.30;;;;;;;-143.84;39.04;44841.53;5112709;28;20944;-74
2022/08/06 10:21:33;;;;;;;7.50;5.67;;;;;;;-143.84;40.87;44858.66;5096110;28;20455;-74
2022/08/06 10:24:03;;;;;;;6.10;5.70;;;;;;;-143.84;39.98;44847.22;5092484;28;21210;-74
2022/08/06 10:26:33;;;;;;;6.13;5.63;;;;;;;-143.84;40.43;44860.56;5092387;28;20447;-74
2022/08/06 10:29:08;;;;;;;5.80;5.30;;;;;;;-143.84;39.47;44841.53;5092203;28;20476;-74
2022/08/06 10:31:37;;;;;;;7.47;5.57;;;;;;;-143.84;39.61;44835.81;5092515;28;20512;-74
2022/08/06 10:34:10;;;;;;;6.23;5.20;;;;;;;-143.84;40.46;44824.38;5092225;28;20448;-74
2022/08/06 10:36:41;;;;;;;5.37;5.07;;;;;;;-143.84;38.38;44845.31;5092551;28;20451;-74
2022/08/06 10:39:09;;;;;;;5.60;5.00;;;;;;;-143.84;38.49;44879.59;5092202;28;20447;-74
2022/08/06 10:41:38;;;;;;;7.53;5.70;;;;;;;-143.84;38.25;44807.25;5091977;28;20829;-74
2022/08/06 10:44:08;;;;;;;6.00;5.53;;;;;;;-143.84;39.77;44854.84;5095678;28;20511;-74
2022/08/06 10:46:36;;;;;;;4.80;4.50;;;;;;;-143.84;38.29;44839.63;5112510;28;20442;-74
2022/08/06 10:49:03;;;;;;;6.50;4.97;;;;;;;-143.84;38.18;44843.44;5112371;28;21184;-74
2022/08/06 10:51:31;;;;;;;4.83;4.53;;;;;;;-143.84;38.89;44830.09;5112307;28;20560;-74
2022/08/06 10:53:58;;;;;;;5.70;5.10;;;;;;;-143.84;38.23;44849.13;5112236;28;20478;-74
2022/08/06 10:56:26;;;;;;;6.87;5.40;;;;;;;-143.84;38.04;44847.22;5112234;28;21033;-74
2022/08/06 10:58:54;;;;;;;5.30;4.87;;;;;;;-143.84;36.93;44828.19;5112452;28;20991;-74
2022/08/06 11:01:30;;;;;;;5.50;5.20;;;;;;;-143.84;36.38;44852.94;5111880;28;20860;-74
2022/08/06 11:04:15;;;;;;;6.40;5.33;;;;;;;-143.84;37.30;44839.63;5112332;28;20450;-74
2022/08/06 11:06:57;;;;;;;12.07;5.20;;;;;;;-143.84;37.93;44858.66;5111429;28;20446;-74
2022/08/06 11:09:42;;;;;;;6.10;5.60;;;;;;;-143.84;38.15;44868.19;5110966;28;20486;-74
2022/08/06 11:12:29;;;;;;;11.77;5.77;;;;;;;-143.84;38.74;44852.94;5111169;28;20451;-74
2022/08/06 11:15:00;;;;;;;6.80;6.17;;;;;;;-143.84;38.26;44847.22;5111196;28;20825;-72
2022/08/06 11:17:50;;;;;;;7.87;6.20;;;;;;;-143.84;38.11;44839.63;5107801;28;20447;-72
2022/08/06 11:20:41;;;;;;;5.87;5.47;;;;;;;-143.84;39.23;44852.94;5109551;28;20459;-72
2022/08/06 11:23:32;;;;;;;6.77;6.07;;;;;;;-143.84;38.26;44826.28;5111654;28;20499;-71
2022/08/06 11:29:23;;;;;;;6.23;5.83;;;;;;;-143.84;39.84;44845.31;5112356;28;20559;-71
2022/08/06 11:31:51;;;;;;;10.43;5.70;;;;;;;-143.84;41.00;44832.00;5111708;28;20504;-70
2022/08/06 11:34:21;;;;;;;7.50;5.50;;;;;;;-143.84;41.24;44871.97;5110944;28;20850;-70
2022/08/06 11:36:56;;;;;;;6.60;5.50;;;;;;;-143.84;41.32;44847.22;5110989;28;20441;-71
2022/08/06 11:39:24;;;;;;;5.23;4.90;;;;;;;-143.84;41.17;44871.97;5110689;28;20509;-73